sensor_id;sensor_type;location;lat;lon;timestamp;temperature;humidity
57058;DHT22;74999;52.848;6.748;2024-03-23T00:54:15;7.20;99.90
57058;DHT22;74999;52.848;6.748;2024-03-23T00:56:41;7.10;99.90
57058;DHT22;74999;52.848;6.748;2024-03-23T00:59:06;7.20;99.90
57058;DHT22;74999;52.848;6.748;2024-03-23T01:01:32;7.20;99.90
57058;DHT22;74999;52.848;6.748;2024-03-23T01:03:57;7.00;99.90
57058;DHT22;74999;52.848;6.748;2024-03-23T01:06:23;7.00;99.90
57058;DHT22;74999;52.848;6.748;2024-03-23T01:08:49;7.00;99.90
57058;DHT22;74999;52.848;6.748;2024-03-23T01:11:14;7.50;99.90
57058;DHT22;74999;52.848;6.748;2024-03-23T01:13:40;7.20;99.90
57058;DHT22;74999;52.848;6.748;2024-03-23T01:16:05;7.00;99.90
57058;DHT22;74999;52.848;6.748;2024-03-23T01:18:32;7.00;99.90
57058;DHT22;74999;52.848;6.748;2024-03-23T01:20:58;7.00;99.90
57058;DHT22;74999;52.848;6.748;2024-03-23T01:23:24;7.30;99.90
57058;DHT22;74999;52.848;6.748;2024-03-23T01:25:53;7.10;99.90
57058;DHT22;74999;52.848;6.748;2024-03-23T01:28:22;7.00;99.90
57058;DHT22;74999;52.848;6.748;2024-03-23T01:30:49;7.10;99.90
57058;DHT22;74999;52.848;6.748;2024-03-23T01:33:14;7.00;99.90
57058;DHT22;74999;52.848;6.748;2024-03-23T01:35:40;7.30;99.90
57058;DHT22;74999;52.848;6.748;2024-03-23T01:38:06;7.00;99.90
57058;DHT22;74999;52.848;6.748;2024-03-23T01:40:31;6.90;99.90
57058;DHT22;74999;52.848;6.748;2024-03-23T01:43:05;6.80;99.90
57058;DHT22;74999;52.848;6.748;2024-03-23T01:45:33;6.80;99.90
57058;DHT22;74999;52.848;6.748;2024-03-23T01:47:59;6.70;99.90
57058;DHT22;74999;52.848;6.748;2024-03-23T01:50:25;6.90;99.90
57058;DHT22;74999;52.848;6.748;2024-03-23T01:52:52;6.90;99.90
57058;DHT22;74999;52.848;6.748;2024-03-23T01:55:17;6.60;99.90
57058;DHT22;74999;52.848;6.748;2024-03-23T01:57:43;6.70;99.90
57058;DHT22;74999;52.848;6.748;2024-03-23T02:00:09;6.40;99.90
57058;DHT22;74999;52.848;6.748;2024-03-23T02:02:44;6.40;99.90
57058;DHT22;74999;52.848;6.748;2024-03-23T02:05:11;6.20;99.90
57058;DHT22;74999;52.848;6.748;2024-03-23T02:07:38;6.20;99.90
57058;DHT22;74999;52.848;6.748;2024-03-23T02:10:05;6.10;99.90
57058;DHT22;74999;52.848;6.748;2024-03-23T02:12:31;6.10;99.90
57058;DHT22;74999;52.848;6.748;2024-03-23T02:14:57;6.10;99.90
57058;DHT22;74999;52.848;6.748;2024-03-23T02:17:22;6.10;99.90
57058;DHT22;74999;52.848;6.748;2024-03-23T02:19:48;6.00;99.90
57058;DHT22;74999;52.848;6.748;2024-03-23T02:22:14;6.10;99.90
57058;DHT22;74999;52.848;6.748;2024-03-23T02:24:41;6.00;99.90
57058;DHT22;74999;52.848;6.748;2024-03-23T02:27:07;5.90;99.90
57058;DHT22;74999;52.848;6.748;2024-03-23T02:29:32;5.80;99.90
57058;DHT22;74999;52.848;6.748;2024-03-23T02:31:58;5.80;99.90
57058;DHT22;74999;52.848;6.748;2024-03-23T02:34:24;5.80;99.90
57058;DHT22;74999;52.848;6.748;2024-03-23T02:36:50;5.80;99.90
57058;DHT22;74999;52.848;6.748;2024-03-23T02:39:16;5.70;99.90
57058;DHT22;74999;52.848;6.748;2024-03-23T02:41:41;5.80;99.90
57058;DHT22;74999;52.848;6.748;2024-03-23T02:44:07;5.70;99.90
57058;DHT22;74999;52.848;6.748;2024-03-23T02:46:33;5.70;99.90
57058;DHT22;74999;52.848;6.748;2024-03-23T02:48:59;5.60;99.90
57058;DHT22;74999;52.848;6.748;2024-03-23T02:51:24;5.50;99.90
57058;DHT22;74999;52.848;6.748;2024-03-23T02:53:50;6.10;99.90
57058;DHT22;74999;52.848;6.748;2024-03-23T02:56:15;5.50;99.90
57058;DHT22;74999;52.848;6.748;2024-03-23T02:58:43;5.40;99.90
57058;DHT22;74999;52.848;6.748;2024-03-23T03:01:08;5.60;99.90
57058;DHT22;74999;52.848;6.748;2024-03-23T03:03:34;5.50;99.90
57058;DHT22;74999;52.848;6.748;2024-03-23T03:05:59;5.50;99.90
57058;DHT22;74999;52.848;6.748;2024-03-23T03:08:25;5.40;99.90
57058;DHT22;74999;52.848;6.748;2024-03-23T03:10:51;5.30;99.90
57058;DHT22;74999;52.848;6.748;2024-03-23T03:13:16;5.50;99.90
57058;DHT22;74999;52.848;6.748;2024-03-23T03:15:46;5.40;99.90
57058;DHT22;74999;52.848;6.748;2024-03-23T03:18:12;5.20;99.90
57058;DHT22;74999;52.848;6.748;2024-03-23T03:20:40;5.30;99.90
57058;DHT22;74999;52.848;6.748;2024-03-23T03:23:06;5.30;99.90
57058;DHT22;74999;52.848;6.748;2024-03-23T03:25:32;5.30;99.90
57058;DHT22;74999;52.848;6.748;2024-03-23T03:27:58;5.20;99.90
57058;DHT22;74999;52.848;6.748;2024-03-23T03:30:23;5.20;99.90
57058;DHT22;74999;52.848;6.748;2024-03-23T03:32:51;5.10;99.90
57058;DHT22;74999;52.848;6.748;2024-03-23T03:35:16;5.40;99.90
57058;DHT22;74999;52.848;6.748;2024-03-23T03:37:42;5.40;99.90
57058;DHT22;74999;52.848;6.748;2024-03-23T03:40:07;5.10;99.90
57058;DHT22;74999;52.848;6.748;2024-03-23T03:42:34;5.20;99.90
57058;DHT22;74999;52.848;6.748;2024-03-23T03:45:00;5.10;99.90
57058;DHT22;74999;52.848;6.748;2024-03-23T03:47:26;5.10;99.90
57058;DHT22;74999;52.848;6.748;2024-03-23T03:49:51;5.00;99.90
57058;DHT22;74999;52.848;6.748;2024-03-23T03:52:17;5.00;99.90
57058;DHT22;74999;52.848;6.748;2024-03-23T03:54:42;5.00;99.90
57058;DHT22;74999;52.848;6.748;2024-03-23T03:57:08;4.90;99.90
57058;DHT22;74999;52.848;6.748;2024-03-23T03:59:34;4.90;99.90
57058;DHT22;74999;52.848;6.748;2024-03-23T04:01:59;5.00;99.90
57058;DHT22;74999;52.848;6.748;2024-03-23T04:04:25;4.80;99.90
57058;DHT22;74999;52.848;6.748;2024-03-23T04:07:01;4.80;99.90
57058;DHT22;74999;52.848;6.748;2024-03-23T04:09:27;4.80;99.90
57058;DHT22;74999;52.848;6.748;2024-03-23T04:11:53;4.70;99.90
57058;DHT22;74999;52.848;6.748;2024-03-23T04:14:19;4.70;99.90
57058;DHT22;74999;52.848;6.748;2024-03-23T04:16:44;4.70;99.90
57058;DHT22;74999;52.848;6.748;2024-03-23T04:19:10;4.80;99.90
57058;DHT22;74999;52.848;6.748;2024-03-23T04:21:37;4.80;99.90
57058;DHT22;74999;52.848;6.748;2024-03-23T04:24:03;4.60;99.90
57058;DHT22;74999;52.848;6.748;2024-03-23T04:26:29;4.60;99.90
57058;DHT22;74999;52.848;6.748;2024-03-23T04:28:55;4.70;99.90
57058;DHT22;74999;52.848;6.748;2024-03-23T04:31:20;4.70;99.90
57058;DHT22;74999;52.848;6.748;2024-03-23T04:33:47;4.60;99.90
57058;DHT22;74999;52.848;6.748;2024-03-23T04:36:12;5.00;99.90
57058;DHT22;74999;52.848;6.748;2024-03-23T04:38:38;4.70;99.90
57058;DHT22;74999;52.848;6.748;2024-03-23T04:41:03;4.60;99.90
57058;DHT22;74999;52.848;6.748;2024-03-23T04:43:29;4.60;99.90
57058;DHT22;74999;52.848;6.748;2024-03-23T04:45:55;4.90;99.90
57058;DHT22;74999;52.848;6.748;2024-03-23T04:48:22;4.70;99.90
57058;DHT22;74999;52.848;6.748;2024-03-23T04:50:48;4.50;99.90
57058;DHT22;74999;52.848;6.748;2024-03-23T04:53:15;4.50;99.90
57058;DHT22;74999;52.848;6.748;2024-03-23T04:55:42;4.50;99.90
57058;DHT22;74999;52.848;6.748;2024-03-23T04:58:08;4.60;99.90
57058;DHT22;74999;52.848;6.748;2024-03-23T05:00:33;4.50;99.90
57058;DHT22;74999;52.848;6.748;2024-03-23T05:02:59;4.50;99.90
57058;DHT22;74999;52.848;6.748;2024-03-23T05:05:25;4.50;99.90
57058;DHT22;74999;52.848;6.748;2024-03-23T05:07:50;4.40;99.90
57058;DHT22;74999;52.848;6.748;2024-03-23T05:10:16;4.50;99.90
57058;DHT22;74999;52.848;6.748;2024-03-23T05:12:42;4.40;99.90
57058;DHT22;74999;52.848;6.748;2024-03-23T05:15:07;4.30;99.90
57058;DHT22;74999;52.848;6.748;2024-03-23T05:17:34;4.40;99.90
57058;DHT22;74999;52.848;6.748;2024-03-23T05:20:00;4.40;99.90
57058;DHT22;74999;52.848;6.748;2024-03-23T05:22:25;4.30;99.90
57058;DHT22;74999;52.848;6.748;2024-03-23T05:24:53;4.20;99.90
57058;DHT22;74999;52.848;6.748;2024-03-23T05:27:18;4.30;99.90
57058;DHT22;74999;52.848;6.748;2024-03-23T05:29:44;4.30;99.90
57058;DHT22;74999;52.848;6.748;2024-03-23T05:32:10;4.30;99.90
57058;DHT22;74999;52.848;6.748;2024-03-23T05:34:35;4.20;99.90
57058;DHT22;74999;52.848;6.748;2024-03-23T05:37:01;4.10;99.90
57058;DHT22;74999;52.848;6.748;2024-03-23T05:39:26;4.20;99.90
57058;DHT22;74999;52.848;6.748;2024-03-23T05:41:52;4.30;99.90
57058;DHT22;74999;52.848;6.748;2024-03-23T05:44:18;4.20;99.90
57058;DHT22;74999;52.848;6.748;2024-03-23T05:46:44;5.10;99.90
57058;DHT22;74999;52.848;6.748;2024-03-23T05:49:15;4.20;99.90
57058;DHT22;74999;52.848;6.748;2024-03-23T05:51:40;4.30;99.90
57058;DHT22;74999;52.848;6.748;2024-03-23T05:54:06;4.80;99.90
57058;DHT22;74999;52.848;6.748;2024-03-23T05:56:32;4.80;99.90
57058;DHT22;74999;52.848;6.748;2024-03-23T05:58:57;4.60;99.90
57058;DHT22;74999;52.848;6.748;2024-03-23T06:01:23;4.50;99.90
57058;DHT22;74999;52.848;6.748;2024-03-23T06:03:49;4.60;99.90
57058;DHT22;74999;52.848;6.748;2024-03-23T06:06:14;4.50;99.90
57058;DHT22;74999;52.848;6.748;2024-03-23T06:08:40;4.50;99.90
57058;DHT22;74999;52.848;6.748;2024-03-23T06:11:06;4.60;99.90
57058;DHT22;74999;52.848;6.748;2024-03-23T06:13:32;4.50;99.90
57058;DHT22;74999;52.848;6.748;2024-03-23T06:16:02;4.60;99.90
57058;DHT22;74999;52.848;6.748;2024-03-23T06:18:28;4.50;99.90
57058;DHT22;74999;52.848;6.748;2024-03-23T06:20:54;4.70;99.90
57058;DHT22;74999;52.848;6.748;2024-03-23T06:23:19;4.70;99.90
57058;DHT22;74999;52.848;6.748;2024-03-23T06:25:46;5.10;99.90
57058;DHT22;74999;52.848;6.748;2024-03-23T06:28:12;5.10;99.90
57058;DHT22;74999;52.848;6.748;2024-03-23T06:30:38;5.20;99.90
57058;DHT22;74999;52.848;6.748;2024-03-23T06:33:03;5.40;99.90
57058;DHT22;74999;52.848;6.748;2024-03-23T06:35:31;5.30;99.90
57058;DHT22;74999;52.848;6.748;2024-03-23T06:37:57;5.50;99.90
57058;DHT22;74999;52.848;6.748;2024-03-23T06:40:23;5.60;99.90
57058;DHT22;74999;52.848;6.748;2024-03-23T06:42:49;5.50;99.90
57058;DHT22;74999;52.848;6.748;2024-03-23T06:45:16;5.50;99.90
57058;DHT22;74999;52.848;6.748;2024-03-23T06:47:41;5.30;99.90
57058;DHT22;74999;52.848;6.748;2024-03-23T06:50:07;5.30;99.90
57058;DHT22;74999;52.848;6.748;2024-03-23T06:52:33;5.30;99.90
57058;DHT22;74999;52.848;6.748;2024-03-23T06:54:58;5.20;99.90
57058;DHT22;74999;52.848;6.748;2024-03-23T06:57:24;5.20;99.90
57058;DHT22;74999;52.848;6.748;2024-03-23T06:59:49;5.10;99.90
57058;DHT22;74999;52.848;6.748;2024-03-23T07:02:15;5.10;99.90
57058;DHT22;74999;52.848;6.748;2024-03-23T07:04:41;5.10;99.90
57058;DHT22;74999;52.848;6.748;2024-03-23T07:07:07;5.10;99.90
57058;DHT22;74999;52.848;6.748;2024-03-23T07:09:33;5.20;99.90
57058;DHT22;74999;52.848;6.748;2024-03-23T07:11:59;5.20;99.90
57058;DHT22;74999;52.848;6.748;2024-03-23T07:14:24;5.20;99.90
57058;DHT22;74999;52.848;6.748;2024-03-23T07:16:51;5.20;99.90
57058;DHT22;74999;52.848;6.748;2024-03-23T07:19:17;5.20;99.90
57058;DHT22;74999;52.848;6.748;2024-03-23T07:21:44;5.20;99.90
57058;DHT22;74999;52.848;6.748;2024-03-23T07:24:10;5.50;99.90
57058;DHT22;74999;52.848;6.748;2024-03-23T07:26:36;5.50;99.90
57058;DHT22;74999;52.848;6.748;2024-03-23T07:29:02;5.40;99.90
57058;DHT22;74999;52.848;6.748;2024-03-23T07:31:28;5.40;99.90
57058;DHT22;74999;52.848;6.748;2024-03-23T07:33:54;5.30;99.90
57058;DHT22;74999;52.848;6.748;2024-03-23T07:36:20;5.50;99.90
57058;DHT22;74999;52.848;6.748;2024-03-23T07:38:45;5.50;99.90
57058;DHT22;74999;52.848;6.748;2024-03-23T07:41:14;5.40;99.90
57058;DHT22;74999;52.848;6.748;2024-03-23T07:43:40;5.60;99.90
57058;DHT22;74999;52.848;6.748;2024-03-23T07:46:06;5.50;99.90
57058;DHT22;74999;52.848;6.748;2024-03-23T07:48:32;5.50;99.90
57058;DHT22;74999;52.848;6.748;2024-03-23T07:50:58;5.50;99.90
57058;DHT22;74999;52.848;6.748;2024-03-23T07:53:24;5.60;99.90
57058;DHT22;74999;52.848;6.748;2024-03-23T07:55:58;5.70;99.90
57058;DHT22;74999;52.848;6.748;2024-03-23T07:58:24;5.60;99.90
57058;DHT22;74999;52.848;6.748;2024-03-23T08:00:49;5.60;99.90
57058;DHT22;74999;52.848;6.748;2024-03-23T08:03:15;5.60;99.90
57058;DHT22;74999;52.848;6.748;2024-03-23T08:05:41;5.60;99.90
57058;DHT22;74999;52.848;6.748;2024-03-23T08:08:07;5.70;99.90
57058;DHT22;74999;52.848;6.748;2024-03-23T08:10:32;5.70;99.90
57058;DHT22;74999;52.848;6.748;2024-03-23T08:12:58;5.80;99.90
57058;DHT22;74999;52.848;6.748;2024-03-23T08:15:23;5.70;99.90
57058;DHT22;74999;52.848;6.748;2024-03-23T08:17:49;5.70;99.90
57058;DHT22;74999;52.848;6.748;2024-03-23T08:20:15;5.70;99.90
57058;DHT22;74999;52.848;6.748;2024-03-23T08:22:41;5.60;99.90
57058;DHT22;74999;52.848;6.748;2024-03-23T08:25:06;5.60;99.90
57058;DHT22;74999;52.848;6.748;2024-03-23T08:27:32;5.90;99.90
57058;DHT22;74999;52.848;6.748;2024-03-23T08:29:58;6.10;99.90
57058;DHT22;74999;52.848;6.748;2024-03-23T08:32:24;6.40;99.90
57058;DHT22;74999;52.848;6.748;2024-03-23T08:34:50;6.50;99.90
57058;DHT22;74999;52.848;6.748;2024-03-23T08:37:15;6.70;99.90
57058;DHT22;74999;52.848;6.748;2024-03-23T08:39:43;6.90;99.90
57058;DHT22;74999;52.848;6.748;2024-03-23T08:42:09;7.00;99.90
57058;DHT22;74999;52.848;6.748;2024-03-23T08:44:34;7.10;99.90
57058;DHT22;74999;52.848;6.748;2024-03-23T08:47:01;7.30;99.90
57058;DHT22;74999;52.848;6.748;2024-03-23T08:49:27;7.30;99.90
57058;DHT22;74999;52.848;6.748;2024-03-23T08:51:53;7.40;99.90
57058;DHT22;74999;52.848;6.748;2024-03-23T08:54:19;7.70;99.90
57058;DHT22;74999;52.848;6.748;2024-03-23T08:56:46;7.80;99.90
57058;DHT22;74999;52.848;6.748;2024-03-23T08:59:11;8.00;99.90
57058;DHT22;74999;52.848;6.748;2024-03-23T09:01:37;8.00;99.90
57058;DHT22;74999;52.848;6.748;2024-03-23T09:04:03;8.00;99.90
57058;DHT22;74999;52.848;6.748;2024-03-23T09:06:29;8.30;99.90
57058;DHT22;74999;52.848;6.748;2024-03-23T09:08:55;8.50;99.90
57058;DHT22;74999;52.848;6.748;2024-03-23T09:11:21;8.70;99.90
57058;DHT22;74999;52.848;6.748;2024-03-23T09:13:46;9.00;99.90
57058;DHT22;74999;52.848;6.748;2024-03-23T09:16:12;9.20;99.90
57058;DHT22;74999;52.848;6.748;2024-03-23T09:18:38;9.40;99.90
57058;DHT22;74999;52.848;6.748;2024-03-23T09:21:11;9.60;99.90
57058;DHT22;74999;52.848;6.748;2024-03-23T09:23:37;9.70;99.90
57058;DHT22;74999;52.848;6.748;2024-03-23T09:26:03;9.80;99.90
57058;DHT22;74999;52.848;6.748;2024-03-23T09:28:29;9.40;99.90
57058;DHT22;74999;52.848;6.748;2024-03-23T09:31:01;9.30;99.90
57058;DHT22;74999;52.848;6.748;2024-03-23T09:33:27;9.00;99.90
57058;DHT22;74999;52.848;6.748;2024-03-23T09:35:55;9.00;99.90
57058;DHT22;74999;52.848;6.748;2024-03-23T09:38:22;8.80;99.90
57058;DHT22;74999;52.848;6.748;2024-03-23T09:40:50;9.00;99.90
57058;DHT22;74999;52.848;6.748;2024-03-23T09:43:18;9.10;99.90
57058;DHT22;74999;52.848;6.748;2024-03-23T09:45:45;9.10;99.90
57058;DHT22;74999;52.848;6.748;2024-03-23T09:48:11;8.90;99.90
57058;DHT22;74999;52.848;6.748;2024-03-23T09:50:41;8.80;99.90
57058;DHT22;74999;52.848;6.748;2024-03-23T09:53:07;9.00;99.90
57058;DHT22;74999;52.848;6.748;2024-03-23T09:55:34;9.20;99.90
57058;DHT22;74999;52.848;6.748;2024-03-23T09:58:01;9.40;99.90
57058;DHT22;74999;52.848;6.748;2024-03-23T10:00:27;9.70;99.90
57058;DHT22;74999;52.848;6.748;2024-03-23T10:02:55;10.10;99.90
57058;DHT22;74999;52.848;6.748;2024-03-23T10:05:22;10.50;99.90
57058;DHT22;74999;52.848;6.748;2024-03-23T10:07:51;11.70;99.90
57058;DHT22;74999;52.848;6.748;2024-03-23T10:10:17;10.80;99.90
57058;DHT22;74999;52.848;6.748;2024-03-23T10:12:47;11.70;99.90
57058;DHT22;74999;52.848;6.748;2024-03-23T10:15:24;10.50;99.90
57058;DHT22;74999;52.848;6.748;2024-03-23T10:17:51;10.50;99.90
57058;DHT22;74999;52.848;6.748;2024-03-23T10:20:20;9.80;99.90
57058;DHT22;74999;52.848;6.748;2024-03-23T10:22:51;9.70;99.90
57058;DHT22;74999;52.848;6.748;2024-03-23T10:25:17;9.00;99.90
57058;DHT22;74999;52.848;6.748;2024-03-23T10:27:43;8.50;99.90
57058;DHT22;74999;52.848;6.748;2024-03-23T10:30:13;8.40;99.90
57058;DHT22;74999;52.848;6.748;2024-03-23T10:32:42;8.70;99.90
57058;DHT22;74999;52.848;6.748;2024-03-23T10:37:42;8.80;99.90
57058;DHT22;74999;52.848;6.748;2024-03-23T10:40:10;8.70;99.90
57058;DHT22;74999;52.848;6.748;2024-03-23T10:42:37;8.80;99.90
57058;DHT22;74999;52.848;6.748;2024-03-23T10:45:07;8.90;99.90
57058;DHT22;74999;52.848;6.748;2024-03-23T10:47:35;9.10;99.90
57058;DHT22;74999;52.848;6.748;2024-03-23T10:50:01;9.40;99.90
57058;DHT22;74999;52.848;6.748;2024-03-23T10:52:28;9.80;99.90
57058;DHT22;74999;52.848;6.748;2024-03-23T10:54:55;9.90;99.90
57058;DHT22;74999;52.848;6.748;2024-03-23T10:57:25;10.20;99.90
57058;DHT22;74999;52.848;6.748;2024-03-23T10:59:53;10.40;99.90
57058;DHT22;74999;52.848;6.748;2024-03-23T11:02:20;10.60;99.90
57058;DHT22;74999;52.848;6.748;2024-03-23T11:04:46;11.00;99.90
57058;DHT22;74999;52.848;6.748;2024-03-23T11:09:50;10.90;99.90
57058;DHT22;74999;52.848;6.748;2024-03-23T11:17:22;10.40;99.90
57058;DHT22;74999;52.848;6.748;2024-03-23T11:19:55;10.00;99.90
57058;DHT22;74999;52.848;6.748;2024-03-23T11:27:44;8.60;99.90
57058;DHT22;74999;52.848;6.748;2024-03-23T11:30:15;8.30;99.90
57058;DHT22;74999;52.848;6.748;2024-03-23T11:32:42;8.10;99.90
57058;DHT22;74999;52.848;6.748;2024-03-23T11:35:09;8.00;99.90
57058;DHT22;74999;52.848;6.748;2024-03-23T11:37:36;7.70;99.90
57058;DHT22;74999;52.848;6.748;2024-03-23T11:40:17;7.60;99.90
57058;DHT22;74999;52.848;6.748;2024-03-23T11:42:43;7.50;99.90
57058;DHT22;74999;52.848;6.748;2024-03-23T11:45:09;7.40;99.90
57058;DHT22;74999;52.848;6.748;2024-03-23T11:47:35;7.40;99.90
57058;DHT22;74999;52.848;6.748;2024-03-23T11:50:01;7.40;99.90
57058;DHT22;74999;52.848;6.748;2024-03-23T11:52:26;7.40;99.90
57058;DHT22;74999;52.848;6.748;2024-03-23T11:55:03;7.30;99.90
57058;DHT22;74999;52.848;6.748;2024-03-23T11:57:29;7.40;99.90
57058;DHT22;74999;52.848;6.748;2024-03-23T11:59:55;7.30;99.90
57058;DHT22;74999;52.848;6.748;2024-03-23T12:02:20;7.50;99.90
57058;DHT22;74999;52.848;6.748;2024-03-23T12:04:46;7.60;99.90
57058;DHT22;74999;52.848;6.748;2024-03-23T12:07:16;7.80;99.90
57058;DHT22;74999;52.848;6.748;2024-03-23T12:09:44;8.00;99.90
57058;DHT22;74999;52.848;6.748;2024-03-23T12:12:17;8.50;99.90
57058;DHT22;74999;52.848;6.748;2024-03-23T12:17:28;9.30;99.90
57058;DHT22;74999;52.848;6.748;2024-03-23T12:19:54;9.70;99.90
57058;DHT22;74999;52.848;6.748;2024-03-23T12:22:23;10.10;99.90
57058;DHT22;74999;52.848;6.748;2024-03-23T12:24:49;10.30;99.90
57058;DHT22;74999;52.848;6.748;2024-03-23T12:27:15;10.50;99.90
57058;DHT22;74999;52.848;6.748;2024-03-23T12:29:41;10.60;99.90
57058;DHT22;74999;52.848;6.748;2024-03-23T12:32:08;10.60;99.90
57058;DHT22;74999;52.848;6.748;2024-03-23T12:34:34;10.40;99.90
57058;DHT22;74999;52.848;6.748;2024-03-23T12:36:59;10.10;99.90
57058;DHT22;74999;52.848;6.748;2024-03-23T12:39:25;9.80;99.90
57058;DHT22;74999;52.848;6.748;2024-03-23T12:41:51;9.80;99.90
57058;DHT22;74999;52.848;6.748;2024-03-23T12:44:18;9.50;99.90
57058;DHT22;74999;52.848;6.748;2024-03-23T12:46:44;9.30;99.90
57058;DHT22;74999;52.848;6.748;2024-03-23T12:49:10;9.10;99.90
57058;DHT22;74999;52.848;6.748;2024-03-23T12:51:36;9.00;99.90
57058;DHT22;74999;52.848;6.748;2024-03-23T12:54:02;9.00;99.90
57058;DHT22;74999;52.848;6.748;2024-03-23T12:56:28;9.00;99.90
57058;DHT22;74999;52.848;6.748;2024-03-23T12:58:54;8.80;99.90
57058;DHT22;74999;52.848;6.748;2024-03-23T13:01:21;8.80;99.90
57058;DHT22;74999;52.848;6.748;2024-03-23T13:03:47;9.10;99.90
57058;DHT22;74999;52.848;6.748;2024-03-23T13:06:13;9.10;99.90
57058;DHT22;74999;52.848;6.748;2024-03-23T13:08:39;9.10;99.90
57058;DHT22;74999;52.848;6.748;2024-03-23T13:11:06;8.90;99.90
57058;DHT22;74999;52.848;6.748;2024-03-23T13:13:37;8.90;99.90
57058;DHT22;74999;52.848;6.748;2024-03-23T13:16:03;9.10;99.90
57058;DHT22;74999;52.848;6.748;2024-03-23T13:18:30;9.20;99.90
57058;DHT22;74999;52.848;6.748;2024-03-23T13:20:55;9.00;99.90
57058;DHT22;74999;52.848;6.748;2024-03-23T13:23:21;9.00;99.90
57058;DHT22;74999;52.848;6.748;2024-03-23T13:25:54;8.90;99.90
57058;DHT22;74999;52.848;6.748;2024-03-23T13:28:21;8.90;99.90
57058;DHT22;74999;52.848;6.748;2024-03-23T13:30:54;9.00;99.90
57058;DHT22;74999;52.848;6.748;2024-03-23T13:33:19;9.20;99.90
57058;DHT22;74999;52.848;6.748;2024-03-23T13:35:55;9.50;99.90
57058;DHT22;74999;52.848;6.748;2024-03-23T13:38:22;10.00;99.90
57058;DHT22;74999;52.848;6.748;2024-03-23T13:40:55;10.10;99.90
57058;DHT22;74999;52.848;6.748;2024-03-23T13:43:22;10.10;99.90
57058;DHT22;74999;52.848;6.748;2024-03-23T13:45:49;9.90;99.90
57058;DHT22;74999;52.848;6.748;2024-03-23T13:48:16;10.00;99.90
57058;DHT22;74999;52.848;6.748;2024-03-23T13:50:43;10.00;99.90
57058;DHT22;74999;52.848;6.748;2024-03-23T13:53:09;10.20;99.90
57058;DHT22;74999;52.848;6.748;2024-03-23T13:55:34;10.40;99.90
57058;DHT22;74999;52.848;6.748;2024-03-23T13:58:01;10.90;99.90
57058;DHT22;74999;52.848;6.748;2024-03-23T14:00:27;11.20;99.90
57058;DHT22;74999;52.848;6.748;2024-03-23T14:02:52;10.60;99.90
57058;DHT22;74999;52.848;6.748;2024-03-23T14:05:18;10.70;99.90
57058;DHT22;74999;52.848;6.748;2024-03-23T14:07:44;10.60;99.90
57058;DHT22;74999;52.848;6.748;2024-03-23T14:10:09;10.70;99.90
57058;DHT22;74999;52.848;6.748;2024-03-23T14:12:38;10.50;99.90
57058;DHT22;74999;52.848;6.748;2024-03-23T14:15:07;10.50;99.90
57058;DHT22;74999;52.848;6.748;2024-03-23T14:17:33;10.40;99.90
57058;DHT22;74999;52.848;6.748;2024-03-23T14:19:59;10.20;99.90
57058;DHT22;74999;52.848;6.748;2024-03-23T14:22:31;10.30;99.90
57058;DHT22;74999;52.848;6.748;2024-03-23T14:24:57;10.30;99.90
57058;DHT22;74999;52.848;6.748;2024-03-23T14:27:23;10.80;99.90
57058;DHT22;74999;52.848;6.748;2024-03-23T14:29:49;10.40;99.90
57058;DHT22;74999;52.848;6.748;2024-03-23T14:32:15;10.60;99.90
57058;DHT22;74999;52.848;6.748;2024-03-23T14:34:41;10.60;98.80
57058;DHT22;74999;52.848;6.748;2024-03-23T14:37:07;10.20;99.90
57058;DHT22;74999;52.848;6.748;2024-03-23T14:39:33;10.10;99.90
57058;DHT22;74999;52.848;6.748;2024-03-23T14:42:04;9.90;99.90
57058;DHT22;74999;52.848;6.748;2024-03-23T14:44:31;9.80;99.90
57058;DHT22;74999;52.848;6.748;2024-03-23T14:46:57;9.60;99.90
57058;DHT22;74999;52.848;6.748;2024-03-23T14:49:23;9.40;99.90
57058;DHT22;74999;52.848;6.748;2024-03-23T14:51:49;9.30;99.90
57058;DHT22;74999;52.848;6.748;2024-03-23T14:54:15;9.10;99.90
57058;DHT22;74999;52.848;6.748;2024-03-23T14:56:41;8.90;99.90
57058;DHT22;74999;52.848;6.748;2024-03-23T14:59:06;9.00;99.90
57058;DHT22;74999;52.848;6.748;2024-03-23T15:01:33;9.70;99.90
57058;DHT22;74999;52.848;6.748;2024-03-23T15:03:59;11.10;99.90
57058;DHT22;74999;52.848;6.748;2024-03-23T15:06:25;13.20;97.20
57058;DHT22;74999;52.848;6.748;2024-03-23T15:08:51;13.80;97.20
57058;DHT22;74999;52.848;6.748;2024-03-23T15:11:16;14.50;95.30
57058;DHT22;74999;52.848;6.748;2024-03-23T15:13:44;13.50;93.30
57058;DHT22;74999;52.848;6.748;2024-03-23T15:16:10;13.10;93.80
57058;DHT22;74999;52.848;6.748;2024-03-23T15:18:36;13.40;94.40
57058;DHT22;74999;52.848;6.748;2024-03-23T15:21:03;13.40;93.50
57058;DHT22;74999;52.848;6.748;2024-03-23T15:23:31;13.60;92.10
57058;DHT22;74999;52.848;6.748;2024-03-23T15:25:58;13.30;91.80
57058;DHT22;74999;52.848;6.748;2024-03-23T15:28:24;12.40;92.10
57058;DHT22;74999;52.848;6.748;2024-03-23T15:30:53;11.60;93.10
57058;DHT22;74999;52.848;6.748;2024-03-23T15:33:19;11.00;93.80
57058;DHT22;74999;52.848;6.748;2024-03-23T15:35:44;9.50;94.60
57058;DHT22;74999;52.848;6.748;2024-03-23T15:38:10;10.10;95.60
57058;DHT22;74999;52.848;6.748;2024-03-23T15:40:36;9.70;96.20
57058;DHT22;74999;52.848;6.748;2024-03-23T15:43:01;9.60;97.20
57058;DHT22;74999;52.848;6.748;2024-03-23T15:45:27;9.30;98.00
57058;DHT22;74999;52.848;6.748;2024-03-23T15:47:53;9.40;99.20
57058;DHT22;74999;52.848;6.748;2024-03-23T15:50:18;9.20;99.70
57058;DHT22;74999;52.848;6.748;2024-03-23T15:52:44;9.20;99.90
57058;DHT22;74999;52.848;6.748;2024-03-23T15:55:09;9.00;99.90
57058;DHT22;74999;52.848;6.748;2024-03-23T15:57:35;8.90;99.90
57058;DHT22;74999;52.848;6.748;2024-03-23T16:00:02;8.80;99.90
57058;DHT22;74999;52.848;6.748;2024-03-23T16:02:28;8.80;99.90
57058;DHT22;74999;52.848;6.748;2024-03-23T16:04:54;8.60;99.90
57058;DHT22;74999;52.848;6.748;2024-03-23T16:07:21;8.60;99.90
57058;DHT22;74999;52.848;6.748;2024-03-23T16:09:46;8.50;99.90
57058;DHT22;74999;52.848;6.748;2024-03-23T16:12:12;9.10;99.90
57058;DHT22;74999;52.848;6.748;2024-03-23T16:14:38;8.40;99.90
57058;DHT22;74999;52.848;6.748;2024-03-23T16:17:03;8.30;99.90
57058;DHT22;74999;52.848;6.748;2024-03-23T16:19:29;8.30;99.90
57058;DHT22;74999;52.848;6.748;2024-03-23T16:21:55;8.20;99.90
57058;DHT22;74999;52.848;6.748;2024-03-23T16:24:21;8.20;99.90
57058;DHT22;74999;52.848;6.748;2024-03-23T16:26:47;9.00;99.90
57058;DHT22;74999;52.848;6.748;2024-03-23T16:29:12;8.20;99.90
57058;DHT22;74999;52.848;6.748;2024-03-23T16:31:38;8.20;99.90
57058;DHT22;74999;52.848;6.748;2024-03-23T16:34:04;8.20;99.90
57058;DHT22;74999;52.848;6.748;2024-03-23T16:36:30;8.00;99.90
57058;DHT22;74999;52.848;6.748;2024-03-23T16:38:55;7.90;99.90
57058;DHT22;74999;52.848;6.748;2024-03-23T16:41:21;7.80;99.90
57058;DHT22;74999;52.848;6.748;2024-03-23T16:43:46;7.70;99.90
57058;DHT22;74999;52.848;6.748;2024-03-23T16:46:13;7.70;99.90
57058;DHT22;74999;52.848;6.748;2024-03-23T16:48:43;7.80;99.90
57058;DHT22;74999;52.848;6.748;2024-03-23T16:51:10;7.60;99.90